Terminal Aerodrome Forecast
Issued by NWS Wichita, KS

Home | Current Version | Previous Version | Text Only | Print | Product List | Glossary Off
Versions: 1 2 3 4 5 6 7 8 9 10 11 12 13 14

761
FTUS43 KICT 300520
TAFICT
TAF
KICT 300520Z 3006/3106 03006KT P6SM SCT200
     FM300900 06005KT P6SM VCSH SCT070 BKN080
     FM301400 23009KT P6SM SCT100
     FM310000 21007KT P6SM SCT050=

USA.gov is the U.S. government's official web portal to all federal, state and local government web resources and services.